Time;durP1;ratioP1;P1;durP2;ratioP2;P2;SDS_P1;SDS_P2;PMS_P1;PMS_P2;Temp;Humidity;BMP_temperature;BMP_pressure;BME280_temperature;BME280_humidity;BME280_pressure;Samples;Min_cycle;Max_cycle;Signal;HPM_P1;HPM_P2
2021/04/07 00:00:58;;;;;;;1999.90;999.90;;;;;;;3.66;67.72;100092.25;15723494;28;20045;-64
2021/04/07 00:08:31;;;;;;;1999.90;999.90;;;;;;;3.53;67.77;100104.03;15700071;28;20040;-64
2021/04/07 00:16:03;;;;;;;1999.90;999.90;;;;;;;3.38;68.38;100094.06;15684395;28;20049;-64
2021/04/07 00:23:35;;;;;;;1999.90;999.90;;;;;;;3.59;67.16;100111.13;15696686;28;20455;-63
2021/04/07 00:31:06;;;;;;;1999.90;999.90;;;;;;;3.83;66.57;100099.94;15747954;28;20048;-63
2021/04/07 00:38:39;;;;;;;1999.90;999.90;;;;;;;3.74;66.35;100097.03;15757322;28;20044;-64
2021/04/07 00:46:10;;;;;;;1999.90;999.90;;;;;;;3.63;66.41;100103.03;15742521;28;20048;-64
2021/04/07 00:53:43;;;;;;;1999.90;999.90;;;;;;;3.82;66.31;100128.66;15801213;28;20101;-64
2021/04/07 01:01:14;;;;;;;1999.90;999.90;;;;;;;3.85;66.39;100124.47;15760163;28;20074;-63
2021/04/07 01:08:47;;;;;;;1999.90;999.90;;;;;;;3.55;66.40;100123.06;15752267;28;20049;-62
2021/04/07 01:16:18;;;;;;;1999.90;999.90;;;;;;;3.52;67.06;100129.16;15763840;28;20048;-62
2021/04/07 01:23:50;;;;;;;1999.90;999.90;;;;;;;3.73;66.70;100136.78;15765014;28;20086;-63
2021/04/07 01:31:22;;;;;;;1999.90;999.90;;;;;;;3.84;66.29;100136.63;15749597;28;20040;-61
2021/04/07 01:38:54;;;;;;;1999.90;999.90;;;;;;;3.69;66.17;100149.56;15727176;28;20442;-63
2021/04/07 01:46:26;;;;;;;1999.90;999.90;;;;;;;3.69;66.40;100148.75;15777504;28;20074;-63
2021/04/07 01:54:00;;;;;;;1999.90;999.90;;;;;;;3.77;66.01;100150.84;15735777;28;20067;-63
2021/04/07 02:01:32;;;;;;;1999.90;999.90;;;;;;;3.45;66.78;100154.38;15773967;28;20507;-64
2021/04/07 02:09:06;;;;;;;1999.90;999.90;;;;;;;3.73;65.95;100160.81;15735096;28;20048;-64
2021/04/07 02:16:38;;;;;;;1999.90;999.90;;;;;;;3.65;66.19;100167.03;15761744;28;20044;-64
2021/04/07 02:24:10;;;;;;;1999.90;999.90;;;;;;;3.88;66.06;100171.63;15786672;28;20102;-62
2021/04/07 02:31:42;;;;;;;1999.90;999.90;;;;;;;3.91;65.85;100181.22;15756339;28;20404;-63
2021/04/07 02:39:14;;;;;;;1999.90;999.90;;;;;;;3.57;66.53;100185.09;15764642;28;20058;-62
2021/04/07 02:46:46;;;;;;;1999.90;999.90;;;;;;;3.48;66.88;100187.69;15771470;28;20064;-62
2021/04/07 02:54:19;;;;;;;1999.90;999.90;;;;;;;3.48;66.38;100197.91;15737729;28;20066;-63
2021/04/07 03:01:51;;;;;;;1999.90;999.90;;;;;;;3.39;66.39;100186.72;15767203;28;20036;-62
2021/04/07 03:09:29;;;;;;;1999.90;999.90;;;;;;;3.37;67.01;100191.72;15767117;28;20075;-62
2021/04/07 03:17:01;;;;;;;1999.90;999.90;;;;;;;3.54;66.15;100182.09;15779137;28;20052;-64
2021/04/07 03:24:34;;;;;;;1999.90;999.90;;;;;;;3.45;67.09;100185.53;15752732;28;20047;-63
2021/04/07 03:32:07;;;;;;;1999.90;999.90;;;;;;;3.38;67.03;100196.13;15743976;28;20044;-62
2021/04/07 03:39:39;;;;;;;1999.90;999.90;;;;;;;3.32;67.11;100199.22;15766959;28;20052;-60
2021/04/07 03:47:10;;;;;;;1999.90;999.90;;;;;;;3.27;67.63;100200.13;15746992;28;20098;-62
2021/04/07 03:54:44;;;;;;;1999.90;999.90;;;;;;;3.61;67.08;100221.16;15805209;28;20384;-64
2021/04/07 04:02:15;;;;;;;1999.90;999.90;;;;;;;3.65;66.92;100224.97;15767011;28;20048;-62
2021/04/07 04:09:47;;;;;;;1999.90;999.90;;;;;;;3.53;67.36;100238.38;15784001;28;20040;-63
2021/04/07 04:17:19;;;;;;;1999.90;999.90;;;;;;;3.33;67.81;100248.56;15781868;28;20130;-62
2021/04/07 04:24:51;;;;;;;1999.90;999.90;;;;;;;3.29;68.02;100257.75;15781082;28;20127;-63
2021/04/07 04:32:23;;;;;;;1999.90;999.90;;;;;;;3.24;68.08;100263.34;15766324;28;20131;-63
2021/04/07 04:39:55;;;;;;;1999.90;999.90;;;;;;;3.24;68.13;100264.16;15759031;28;20044;-62
2021/04/07 04:47:26;;;;;;;1999.90;999.90;;;;;;;3.52;67.38;100283.63;15760328;28;20059;-61
2021/04/07 04:54:59;;;;;;;1999.90;999.90;;;;;;;3.67;66.21;100283.44;15766418;28;20063;-63
2021/04/07 05:02:30;;;;;;;1999.90;999.90;;;;;;;3.41;66.39;100300.31;15781407;28;20425;-63
2021/04/07 05:10:03;;;;;;;1999.90;999.90;;;;;;;3.30;66.01;100303.50;15771183;28;20044;-64
2021/04/07 05:17:36;;;;;;;1999.90;999.90;;;;;;;3.28;65.84;100322.28;15791369;28;20553;-63
2021/04/07 05:25:09;;;;;;;1999.90;999.90;;;;;;;3.06;65.96;100328.34;15774950;28;20660;-64
2021/04/07 05:32:41;;;;;;;1999.90;999.90;;;;;;;3.70;64.89;100336.09;15793346;28;20052;-63
2021/04/07 05:40:14;;;;;;;1999.90;999.90;;;;;;;3.63;65.00;100351.34;15728511;22;20082;-58
2021/04/07 05:47:45;;;;;;;1999.90;999.90;;;;;;;3.68;65.25;100365.09;15647580;28;20187;-59
2021/04/07 05:55:18;;;;;;;1999.90;999.90;;;;;;;3.52;65.54;100363.63;15646815;28;20136;-54
2021/04/07 06:02:49;;;;;;;1999.90;999.90;;;;;;;4.20;63.40;100377.09;15664599;28;20114;-60
2021/04/07 06:10:22;;;;;;;1999.90;999.90;;;;;;;4.48;62.35;100367.81;15681869;28;20421;-57
2021/04/07 06:17:55;;;;;;;1999.90;999.90;;;;;;;4.92;60.49;100381.16;15662058;28;20408;-54
2021/04/07 06:25:28;;;;;;;1999.90;999.90;;;;;;;5.17;60.24;100393.69;15661387;28;20073;-56
2021/04/07 06:32:59;;;;;;;1999.90;999.90;;;;;;;5.07;60.44;100393.88;15645640;28;20049;-53
2021/04/07 06:40:33;;;;;;;1999.90;999.90;;;;;;;5.04;60.85;100393.69;15650655;28;20049;-58
2021/04/07 06:48:06;;;;;;;1999.90;999.90;;;;;;;5.49;59.18;100420.47;15599258;28;20505;-56
2021/04/07 06:55:39;;;;;;;1999.90;999.90;;;;;;;5.08;60.67;100425.94;15599133;28;20065;-57
2021/04/07 07:03:12;;;;;;;1999.90;999.90;;;;;;;4.58;62.36;100427.59;15600572;28;20128;-52
2021/04/07 07:10:47;;;;;;;1999.90;999.90;;;;;;;5.00;60.43;100425.81;15619515;28;20373;-55
2021/04/07 07:18:19;;;;;;;1999.90;999.90;;;;;;;4.61;61.40;100418.72;15620369;28;20045;-55
2021/04/07 07:25:56;;;;;;;1999.90;999.90;;;;;;;5.29;60.98;100433.88;15581177;28;20042;-54
2021/04/07 07:33:28;;;;;;;1999.90;999.90;;;;;;;5.54;57.87;100438.94;15614001;28;20544;-57
2021/04/07 07:41:03;;;;;;;1999.90;999.90;;;;;;;5.53;58.32;100440.09;15629805;28;20472;-52
2021/04/07 07:48:35;;;;;;;1999.90;999.90;;;;;;;5.29;59.80;100448.53;15675411;28;20477;-53
2021/04/07 07:56:07;;;;;;;1999.90;999.90;;;;;;;5.53;58.30;100456.69;15672251;28;20480;-58
2021/04/07 08:03:39;;;;;;;1999.90;999.90;;;;;;;6.38;56.91;100463.56;15666320;28;20065;-58
2021/04/07 08:11:12;;;;;;;1999.90;999.90;;;;;;;7.28;54.03;100472.75;15685024;28;20121;-58
2021/04/07 08:18:45;;;;;;;1999.90;999.90;;;;;;;7.19;52.23;100477.41;15656174;28;20359;-55
2021/04/07 08:26:20;;;;;;;1999.90;999.90;;;;;;;6.48;53.51;100479.13;15658206;28;20116;-53
2021/04/07 08:33:54;;;;;;;1999.90;999.90;;;;;;;8.12;50.87;100480.16;15655955;28;20302;-54
2021/04/07 08:41:28;;;;;;;1999.90;999.90;;;;;;;7.46;50.34;100484.78;15673656;28;20223;-60
2021/04/07 08:48:59;;;;;;;1999.90;999.90;;;;;;;7.30;50.93;100489.94;15638837;28;20151;-55
2021/04/07 08:56:34;;;;;;;1999.90;999.90;;;;;;;7.55;50.05;100498.72;15680312;28;20049;-58
2021/04/07 09:04:08;;;;;;;1999.90;999.90;;;;;;;8.75;47.13;100503.06;15639689;28;20513;-60
2021/04/07 09:11:47;;;;;;;1999.90;999.90;;;;;;;9.69;43.74;100510.53;15655136;28;20037;-56
2021/04/07 09:19:21;;;;;;;1999.90;999.90;;;;;;;8.85;44.58;100519.44;15637511;28;20049;-55
2021/04/07 09:26:56;;;;;;;1999.90;999.90;;;;;;;8.88;45.23;100524.38;15653547;28;20128;-52
2021/04/07 09:34:28;;;;;;;1999.90;999.90;;;;;;;9.09;43.32;100521.75;15671179;28;20454;-52
2021/04/07 09:42:01;;;;;;;1999.90;999.90;;;;;;;8.14;44.54;100518.78;15670783;28;20124;-53
2021/04/07 09:49:33;;;;;;;1999.90;999.90;;;;;;;8.80;42.41;100534.34;15652737;28;20449;-54
2021/04/07 09:57:10;;;;;;;1999.90;999.90;;;;;;;8.94;41.87;100531.41;15655237;28;20511;-54
2021/04/07 10:04:43;;;;;;;1999.90;999.90;;;;;;;9.64;41.94;100527.41;15664234;28;20103;-51
2021/04/07 10:12:17;;;;;;;1999.90;999.90;;;;;;;10.70;40.44;100533.03;15681931;28;20041;-56
2021/04/07 10:19:49;;;;;;;1999.90;999.90;;;;;;;10.90;37.84;100546.19;15680772;28;20049;-55
2021/04/07 10:27:23;;;;;;;1999.90;999.90;;;;;;;9.24;41.41;100535.97;15662280;28;20049;-50
2021/04/07 10:35:00;;;;;;;1999.90;999.90;;;;;;;9.41;40.77;100539.91;15680602;28;20155;-51
2021/04/07 10:42:32;;;;;;;1999.90;999.90;;;;;;;9.62;40.94;100552.00;15681309;28;20056;-50
2021/04/07 10:50:06;;;;;;;1999.90;999.90;;;;;;;10.66;38.95;100557.22;15661639;28;20111;-51
2021/04/07 10:57:41;;;;;;;1999.90;999.90;;;;;;;9.00;42.88;100560.72;15644853;28;20444;-51
2021/04/07 11:05:18;;;;;;;1999.90;999.90;;;;;;;9.83;41.03;100552.13;15644308;28;20489;-51
2021/04/07 11:12:50;;;;;;;1999.90;999.90;;;;;;;8.09;43.47;100565.00;15677703;28;20455;-54
2021/04/07 11:20:22;;;;;;;1999.90;999.90;;;;;;;8.18;45.27;100573.41;15660677;28;20112;-57
2021/04/07 11:27:57;;;;;;;1999.90;999.90;;;;;;;7.39;46.79;100578.78;15659733;28;20056;-54
2021/04/07 11:35:32;;;;;;;1999.90;999.90;;;;;;;7.48;47.33;100588.81;15643335;28;20060;-54
2021/04/07 11:43:46;;;;;;;1999.90;999.90;;;;;;;7.07;46.58;100533.47;15796179;23;20032;-85
2021/04/07 12:00:07;;;;;;;1999.90;999.90;;;;;;;8.16;45.44;100575.69;15793531;28;20534;-61
2021/04/07 12:07:38;;;;;;;1999.90;999.90;;;;;;;8.02;46.19;100581.34;15805809;28;20464;-60
2021/04/07 12:15:12;;;;;;;1999.90;999.90;;;;;;;8.65;44.90;100580.13;15804870;28;20041;-60
2021/04/07 12:22:47;;;;;;;1999.90;999.90;;;;;;;8.48;44.93;100573.69;15803495;28;20086;-59
2021/04/07 12:30:20;;;;;;;1999.90;999.90;;;;;;;8.14;46.21;100577.97;15787015;28;20040;-60
2021/04/07 12:37:52;;;;;;;1999.90;999.90;;;;;;;8.67;44.96;100579.81;15804043;28;20097;-58
2021/04/07 12:45:24;;;;;;;1999.90;999.90;;;;;;;9.18;45.41;100576.28;15776153;28;20045;-61
2021/04/07 12:52:56;;;;;;;1999.90;999.90;;;;;;;8.81;44.05;100576.88;15674789;28;20493;-59
2021/04/07 13:00:29;;;;;;;1999.90;999.90;;;;;;;9.21;43.83;100570.06;15658496;28;20112;-64
2021/04/07 13:08:01;;;;;;;1999.90;999.90;;;;;;;9.28;43.41;100558.44;15692465;28;20080;-59
2021/04/07 13:15:33;;;;;;;1999.90;999.90;;;;;;;9.62;43.67;100560.34;15661968;28;20033;-60
2021/04/07 13:23:05;;;;;;;1999.90;999.90;;;;;;;8.65;45.19;100569.00;15698377;28;20127;-63
2021/04/07 13:30:46;;;;;;;1999.90;999.90;;;;;;;8.28;45.79;100545.31;15682704;28;20135;-62
2021/04/07 13:38:19;;;;;;;1999.90;999.90;;;;;;;8.46;45.84;100542.63;15718752;28;20072;-62
2021/04/07 13:45:52;;;;;;;1999.90;999.90;;;;;;;8.37;46.13;100545.38;15716652;28;20068;-60
2021/04/07 13:53:24;;;;;;;1999.90;999.90;;;;;;;8.21;47.09;100541.34;15727493;28;20503;-61
2021/04/07 14:00:57;;;;;;;1999.90;999.90;;;;;;;7.91;48.73;100537.47;15751006;28;20132;-60
2021/04/07 14:08:30;;;;;;;1999.90;999.90;;;;;;;8.04;47.45;100531.00;15732262;28;20056;-60
2021/04/07 14:16:02;;;;;;;1999.90;999.90;;;;;;;7.87;47.83;100534.50;15714898;28;20060;-61
2021/04/07 14:23:34;;;;;;;1999.90;999.90;;;;;;;8.07;48.28;100547.84;15730653;28;20115;-60
2021/04/07 14:31:07;;;;;;;1999.90;999.90;;;;;;;8.23;47.42;100544.63;15748467;28;20043;-61
2021/04/07 14:38:38;;;;;;;1999.90;999.90;;;;;;;7.82;47.22;100537.44;15732479;28;20037;-61
2021/04/07 14:46:12;;;;;;;1999.90;999.90;;;;;;;7.85;47.65;100534.00;15746274;28;20102;-59
2021/04/07 14:53:44;;;;;;;1999.90;999.90;;;;;;;8.09;47.59;100531.66;15719348;28;20051;-61
2021/04/07 15:01:16;;;;;;;1999.90;999.90;;;;;;;7.98;47.16;100538.66;15650560;28;20108;-60
2021/04/07 15:08:48;;;;;;;1999.90;999.90;;;;;;;8.75;46.19;100544.78;15684717;28;20044;-61
2021/04/07 15:16:20;;;;;;;1999.90;999.90;;;;;;;9.06;45.37;100528.78;15665662;28;20052;-61
2021/04/07 15:23:53;;;;;;;1999.90;999.90;;;;;;;8.50;46.30;100527.75;15665517;28;20055;-61
2021/04/07 15:31:28;;;;;;;1999.90;999.90;;;;;;;8.34;46.63;100507.91;15683591;28;20047;-61
2021/04/07 15:38:59;;;;;;;1999.90;999.90;;;;;;;8.02;47.57;100502.69;15664085;28;20487;-62
2021/04/07 15:46:32;;;;;;;1999.90;999.90;;;;;;;7.83;48.03;100508.53;15681886;28;20087;-61
2021/04/07 15:54:04;;;;;;;1999.90;999.90;;;;;;;8.77;46.51;100509.13;15693657;28;20131;-61
2021/04/07 16:01:37;;;;;;;1999.90;999.90;;;;;;;8.13;46.09;100506.00;15743039;28;20454;-61
2021/04/07 16:09:10;;;;;;;1999.90;999.90;;;;;;;8.04;47.13;100501.25;15725046;28;20047;-58
2021/04/07 16:16:42;;;;;;;1999.90;999.90;;;;;;;8.22;46.98;100493.78;15708766;28;20075;-61
2021/04/07 16:24:14;;;;;;;1999.90;999.90;;;;;;;8.10;47.05;100497.16;15742205;28;20052;-60
2021/04/07 16:31:46;;;;;;;1999.90;999.90;;;;;;;7.84;48.86;100510.16;15742379;28;20045;-60
2021/04/07 16:39:18;;;;;;;1999.90;999.90;;;;;;;7.40;52.55;100513.81;15723368;28;20044;-60
2021/04/07 16:46:50;;;;;;;1999.90;999.90;;;;;;;7.05;54.62;100523.84;15722621;28;20131;-60
2021/04/07 16:54:22;;;;;;;1999.90;999.90;;;;;;;7.10;55.90;100526.50;15722694;28;20526;-62
2021/04/07 17:01:54;;;;;;;1999.90;999.90;;;;;;;6.44;61.30;100539.91;15722123;28;20488;-61
2021/04/07 17:09:26;;;;;;;1999.90;999.90;;;;;;;6.16;63.62;100541.06;15721120;28;20052;-60
2021/04/07 17:16:59;;;;;;;1999.90;999.90;;;;;;;5.97;65.31;100546.69;15721801;28;20513;-61
2021/04/07 17:24:30;;;;;;;1999.90;999.90;;;;;;;6.05;66.38;100546.00;15740657;28;20044;-61
2021/04/07 17:32:03;;;;;;;1999.90;999.90;;;;;;;5.98;67.69;100545.56;15722449;28;20318;-61
2021/04/07 17:39:35;;;;;;;1999.90;999.90;;;;;;;5.86;68.52;100540.50;15757847;28;20082;-62
2021/04/07 17:47:21;;;;;;;1999.90;999.90;;;;;;;6.06;68.14;100533.78;15747528;28;20497;-59
2021/04/07 17:54:53;;;;;;;1999.90;999.90;;;;;;;6.07;68.57;100533.47;15769064;28;20044;-60
2021/04/07 18:02:26;;;;;;;1999.90;999.90;;;;;;;6.16;68.61;100539.13;15827864;28;20055;-60
2021/04/07 18:09:57;;;;;;;1999.90;999.90;;;;;;;6.07;68.96;100541.78;15800844;28;20048;-62
2021/04/07 18:17:30;;;;;;;1999.90;999.90;;;;;;;6.13;68.85;100545.25;15770112;28;20127;-62
2021/04/07 18:25:01;;;;;;;1999.90;999.90;;;;;;;6.11;68.87;100536.44;15766436;28;20048;-62
2021/04/07 18:32:35;;;;;;;1999.90;999.90;;;;;;;5.95;69.76;100563.63;15751174;28;20098;-63
2021/04/07 18:40:08;;;;;;;1999.90;999.90;;;;;;;5.83;71.14;100563.25;15771540;28;20040;-63
2021/04/07 18:47:41;;;;;;;1999.90;999.90;;;;;;;5.85;70.33;100568.50;15790431;28;20040;-63
2021/04/07 18:55:14;;;;;;;1999.90;999.90;;;;;;;5.90;70.31;100565.63;15768322;28;20048;-61
2021/04/07 19:02:47;;;;;;;1999.90;999.90;;;;;;;5.52;72.22;100576.78;15732240;28;20101;-62
2021/04/07 19:10:20;;;;;;;1999.90;999.90;;;;;;;5.64;71.41;100581.88;15752021;28;20048;-63
2021/04/07 19:17:55;;;;;;;1999.90;999.90;;;;;;;5.54;72.21;100585.66;15767940;28;20049;-63
2021/04/07 19:25:27;;;;;;;1999.90;999.90;;;;;;;6.09;70.85;100588.56;15776593;28;20512;-66
2021/04/07 19:33:03;;;;;;;1999.90;999.90;;;;;;;5.85;71.99;100585.94;15767936;28;20083;-63
2021/04/07 19:40:44;;;;;;;1999.90;999.90;;;;;;;5.95;71.29;100588.53;15739351;28;20146;-65
2021/04/07 19:48:22;;;;;;;1999.90;999.90;;;;;;;5.93;71.73;100592.72;15746191;28;20388;-62
2021/04/07 19:56:12;;;;;;;1999.90;999.90;;;;;;;6.06;70.28;100594.72;15778282;28;20400;-64
2021/04/07 20:03:48;;;;;;;1999.90;999.90;;;;;;;5.83;68.00;100615.84;15730069;28;20044;-63
2021/04/07 20:11:39;;;;;;;1999.90;999.90;;;;;;;5.42;67.41;100622.09;15758809;28;20135;-63
2021/04/07 20:19:16;;;;;;;1999.90;999.90;;;;;;;5.28;65.87;100635.03;15749621;28;20130;-64
2021/04/07 20:26:52;;;;;;;1999.90;999.90;;;;;;;5.36;66.18;100630.75;15791118;28;20055;-62
2021/04/07 20:34:25;;;;;;;1999.90;999.90;;;;;;;5.25;68.04;100640.34;15784515;28;20439;-63
2021/04/07 20:42:00;;;;;;;1999.90;999.90;;;;;;;5.42;69.37;100649.78;15737818;28;20298;-62
2021/04/07 20:49:38;;;;;;;1999.90;999.90;;;;;;;5.34;69.97;100655.16;15756426;28;20056;-62
2021/04/07 20:57:15;;;;;;;1999.90;999.90;;;;;;;5.31;70.58;100661.25;15785673;28;20431;-62
2021/04/07 21:04:54;;;;;;;1999.90;999.90;;;;;;;5.14;71.15;100664.56;15757440;28;20712;-63
2021/04/07 21:12:26;;;;;;;1999.90;999.90;;;;;;;5.27;70.48;100687.91;15759925;28;20098;-62
2021/04/07 21:20:03;;;;;;;1999.90;999.90;;;;;;;4.96;70.84;100696.59;15744351;28;20044;-64
2021/04/07 21:27:35;;;;;;;1999.90;999.90;;;;;;;5.29;69.22;100699.47;15745846;28;20523;-61
2021/04/07 21:35:13;;;;;;;1999.90;999.90;;;;;;;5.10;69.51;100710.53;15756578;28;20128;-63
2021/04/07 21:42:53;;;;;;;1999.90;999.90;;;;;;;5.15;68.80;100729.81;15766716;28;20101;-64
2021/04/07 21:50:26;;;;;;;1999.90;999.90;;;;;;;5.06;68.44;100737.13;15765238;28;20054;-64
2021/04/07 21:57:58;;;;;;;1999.90;999.90;;;;;;;4.88;68.86;100750.59;15706320;28;20056;-64
2021/04/07 22:05:33;;;;;;;1999.90;999.90;;;;;;;4.97;68.41;100756.31;15711489;28;20045;-63
2021/04/07 22:13:11;;;;;;;1999.90;999.90;;;;;;;4.81;68.29;100755.69;15709700;28;20045;-63
2021/04/07 22:20:49;;;;;;;1999.90;999.90;;;;;;;5.08;66.89;100771.66;15698353;28;20045;-62
2021/04/07 22:28:25;;;;;;;1999.90;999.90;;;;;;;4.98;67.09;100776.50;15701394;28;20041;-64
2021/04/07 22:35:59;;;;;;;1999.90;999.90;;;;;;;4.81;66.87;100785.28;15710870;28;20055;-63
2021/04/07 22:43:33;;;;;;;1999.90;999.90;;;;;;;4.69;67.26;100793.13;15712667;28;20068;-64
2021/04/07 22:51:09;;;;;;;1999.90;999.90;;;;;;;4.73;66.90;100794.19;15688608;28;20461;-63
2021/04/07 22:58:47;;;;;;;1999.90;999.90;;;;;;;4.32;68.04;100808.41;15774114;28;20424;-64
2021/04/07 23:06:22;;;;;;;1999.90;999.90;;;;;;;4.14;68.32;100798.03;15754375;28;20056;-64
2021/04/07 23:13:54;;;;;;;1999.90;999.90;;;;;;;4.22;67.62;100808.47;15753396;28;20051;-62
2021/04/07 23:21:32;;;;;;;1999.90;999.90;;;;;;;4.35;67.43;100827.97;15765713;28;20044;-64
2021/04/07 23:29:09;;;;;;;1999.90;999.90;;;;;;;4.52;67.95;100816.50;15782799;28;20132;-64
2021/04/07 23:36:44;;;;;;;1999.90;999.90;;;;;;;4.19;69.13;100823.69;15787724;28;20496;-62
2021/04/07 23:44:21;;;;;;;1999.90;999.90;;;;;;;4.57;68.40;100837.72;15735240;28;20048;-63
2021/04/07 23:51:56;;;;;;;1999.90;999.90;;;;;;;4.47;68.42;100851.63;15763944;28;20048;-63
2021/04/07 23:59:29;;;;;;;1999.90;999.90;;;;;;;4.25;67.55;100857.59;15763564;28;20484;-63
